createdAt,value
2018-04-17T00:01:38.101Z,14.60
2018-04-17T00:04:06.368Z,15.00
2018-04-17T00:06:34.636Z,14.60
2018-04-17T00:09:02.943Z,14.70
2018-04-17T00:11:31.953Z,14.50
2018-04-17T00:14:00.228Z,14.70
2018-04-17T00:16:28.488Z,14.20
2018-04-17T00:18:56.807Z,14.40
2018-04-17T00:21:25.072Z,14.50
2018-04-17T00:23:53.492Z,14.50
2018-04-17T00:26:22.673Z,14.20
2018-04-17T00:28:52.415Z,14.20
2018-04-17T00:31:21.420Z,14.10
2018-04-17T00:33:50.629Z,14.10
2018-04-17T00:36:19.432Z,14.20
2018-04-17T00:38:47.696Z,13.90
2018-04-17T00:41:16.109Z,14.20
2018-04-17T00:43:44.356Z,14.00
2018-04-17T00:46:12.609Z,13.90
2018-04-17T00:48:40.956Z,13.70
2018-04-17T00:51:09.247Z,13.80
2018-04-17T00:53:49.520Z,13.80
2018-04-17T00:56:17.800Z,13.90
2018-04-17T00:58:46.083Z,13.70
2018-04-17T01:01:14.332Z,13.50
2018-04-17T01:03:42.598Z,13.60
2018-04-17T01:06:11.744Z,13.70
2018-04-17T01:08:41.544Z,13.60
2018-04-17T01:11:09.793Z,13.50
2018-04-17T01:13:38.173Z,13.70
2018-04-17T01:16:06.556Z,13.30
2018-04-17T01:18:34.792Z,13.50
2018-04-17T01:21:03.059Z,13.50
2018-04-17T01:23:31.310Z,13.20
2018-04-17T01:25:59.574Z,13.40
2018-04-17T01:28:27.850Z,13.50
2018-04-17T01:30:56.111Z,13.50
2018-04-17T01:33:24.388Z,13.60
2018-04-17T01:35:53.426Z,13.50
2018-04-17T01:38:21.762Z,13.50
2018-04-17T01:40:50.848Z,13.70
2018-04-17T01:43:19.082Z,13.50
2018-04-17T01:45:47.341Z,13.30
2018-04-17T01:48:15.625Z,13.50
2018-04-17T01:50:43.909Z,13.10
2018-04-17T01:53:12.196Z,13.10
2018-04-17T01:55:40.434Z,13.20
2018-04-17T01:58:08.707Z,13.10
2018-04-17T02:00:36.949Z,12.90
2018-04-17T02:03:05.207Z,13.20
2018-04-17T02:05:33.495Z,13.00
2018-04-17T02:08:01.762Z,12.90
2018-04-17T02:10:30.785Z,12.80
2018-04-17T02:12:59.043Z,12.90
2018-04-17T02:15:28.258Z,12.80
2018-04-17T02:17:57.088Z,12.80
2018-04-17T02:20:26.080Z,12.80
2018-04-17T02:22:54.373Z,13.00
2018-04-17T02:25:22.634Z,12.60
2018-04-17T02:27:50.998Z,12.70
2018-04-17T02:30:19.330Z,12.60
2018-04-17T02:32:47.652Z,12.90
2018-04-17T02:35:15.929Z,12.50
2018-04-17T02:37:44.270Z,12.80
2018-04-17T02:40:12.558Z,12.50
2018-04-17T02:42:40.826Z,12.60
2018-04-17T02:45:09.123Z,12.80
2018-04-17T02:47:38.303Z,12.70
2018-04-17T02:50:06.552Z,12.70
2018-04-17T02:52:36.902Z,12.70
2018-04-17T02:55:05.160Z,12.60
2018-04-17T02:57:33.444Z,12.70
2018-04-17T03:00:01.703Z,12.70
2018-04-17T03:02:30.005Z,12.80
2018-04-17T03:04:58.253Z,12.70
2018-04-17T03:07:27.349Z,12.60
2018-04-17T03:09:55.603Z,12.40
2018-04-17T03:12:23.856Z,12.50
2018-04-17T03:14:52.168Z,12.20
2018-04-17T03:17:20.424Z,12.40
2018-04-17T03:19:48.692Z,12.50
2018-04-17T03:22:16.973Z,12.40
2018-04-17T03:24:45.209Z,12.20
2018-04-17T03:27:13.513Z,12.60
2018-04-17T03:29:41.797Z,12.40
2018-04-17T03:32:11.269Z,12.20
2018-04-17T03:34:40.393Z,12.20
2018-04-17T03:37:08.668Z,12.40
2018-04-17T03:39:37.720Z,12.20
2018-04-17T03:42:05.980Z,12.20
2018-04-17T03:44:34.231Z,12.00
2018-04-17T03:47:02.526Z,12.30
2018-04-17T03:49:30.863Z,12.10
2018-04-17T03:51:59.188Z,11.90
2018-04-17T03:54:27.420Z,12.00
2018-04-17T03:56:55.677Z,11.90
2018-04-17T03:59:23.977Z,11.90
2018-04-17T04:01:52.237Z,11.80
2018-04-17T04:04:20.504Z,11.80
2018-04-17T04:06:48.768Z,12.00
2018-04-17T04:09:17.058Z,11.70
2018-04-17T04:11:45.309Z,11.90
2018-04-17T04:14:14.324Z,11.50
2018-04-17T04:16:56.743Z,11.50
2018-04-17T04:19:37.188Z,11.80
2018-04-17T04:22:17.514Z,11.80
2018-04-17T04:24:59.095Z,11.50
2018-04-17T04:27:28.148Z,11.50
2018-04-17T04:29:56.383Z,11.50
2018-04-17T04:32:24.786Z,11.50
2018-04-17T04:34:53.815Z,11.60
2018-04-17T04:37:22.937Z,11.50
2018-04-17T04:39:51.244Z,11.50
2018-04-17T04:42:19.526Z,11.70
2018-04-17T04:44:48.580Z,11.60
2018-04-17T04:47:16.943Z,11.80
2018-04-17T04:49:45.229Z,11.80
2018-04-17T04:52:14.257Z,11.50
2018-04-17T04:54:42.515Z,11.80
2018-04-17T04:57:10.927Z,11.70
2018-04-17T04:59:39.199Z,11.60
2018-04-17T05:02:07.425Z,11.70
2018-04-17T05:04:36.621Z,11.70
2018-04-17T05:07:04.912Z,11.80
2018-04-17T05:09:33.476Z,11.70
2018-04-17T05:12:02.529Z,11.80
2018-04-17T05:14:30.764Z,11.70
2018-04-17T05:16:59.821Z,11.70
2018-04-17T05:19:30.225Z,11.50
2018-04-17T05:21:59.418Z,11.60
2018-04-17T05:24:27.783Z,11.80
2018-04-17T05:26:56.355Z,11.80
2018-04-17T05:29:25.410Z,11.80
2018-04-17T05:31:54.664Z,11.70
2018-04-17T05:34:22.947Z,12.20
2018-04-17T05:36:51.292Z,12.00
2018-04-17T05:39:20.558Z,11.80
2018-04-17T05:41:48.809Z,12.10
2018-04-17T05:44:17.149Z,11.90
2018-04-17T05:46:45.396Z,11.90
2018-04-17T05:49:13.719Z,11.90
2018-04-17T05:51:43.028Z,11.80
2018-04-17T05:54:13.035Z,12.10
2018-04-17T05:56:41.301Z,12.10
2018-04-17T05:59:10.468Z,12.40
2018-04-17T06:01:38.750Z,12.30
2018-04-17T06:04:07.672Z,12.20
2018-04-17T06:06:35.980Z,12.50
2018-04-17T06:09:07.036Z,12.60
2018-04-17T06:11:36.184Z,12.40
2018-04-17T06:14:04.472Z,12.40
2018-04-17T06:16:32.757Z,12.70
2018-04-17T06:19:01.020Z,12.60
2018-04-17T06:21:29.304Z,12.70
2018-04-17T06:23:57.598Z,12.80
2018-04-17T06:26:25.975Z,12.70
2018-04-17T06:28:54.345Z,12.70
2018-04-17T06:31:22.609Z,12.90
2018-04-17T06:33:50.900Z,12.80
2018-04-17T06:36:19.195Z,13.10
2018-04-17T06:38:47.477Z,13.00
2018-04-17T06:41:16.544Z,13.10
2018-04-17T06:43:46.555Z,13.00
2018-04-17T06:46:14.817Z,13.10
2018-04-17T06:48:43.074Z,13.10
2018-04-17T06:51:12.866Z,13.60
2018-04-17T06:53:41.233Z,13.60
2018-04-17T06:56:09.495Z,13.50
2018-04-17T06:58:38.592Z,14.10
2018-04-17T07:01:06.861Z,14.10
2018-04-17T07:03:35.935Z,14.30
2018-04-17T07:06:04.213Z,14.40
2018-04-17T07:08:32.496Z,14.50
2018-04-17T07:11:02.319Z,14.50
2018-04-17T07:13:30.720Z,14.90
2018-04-17T07:16:01.381Z,15.30
2018-04-17T07:18:30.436Z,15.50
2018-04-17T07:20:58.751Z,14.90
2018-04-17T07:23:27.766Z,15.30
2018-04-17T07:25:56.791Z,15.70
2018-04-17T07:28:25.167Z,15.80
2018-04-17T07:30:53.433Z,15.90
2018-04-17T07:33:21.872Z,15.70
2018-04-17T07:35:50.123Z,16.10
2018-04-17T07:38:18.368Z,16.10
2018-04-17T07:40:46.645Z,16.10
2018-04-17T07:43:15.640Z,16.10
2018-04-17T07:45:44.693Z,16.30
2018-04-17T07:48:25.959Z,16.20
2018-04-17T07:50:54.216Z,16.30
2018-04-17T07:53:22.505Z,16.70
2018-04-17T07:55:50.777Z,16.70
2018-04-17T07:58:19.069Z,16.70
2018-04-17T08:00:47.378Z,17.00
2018-04-17T08:03:15.617Z,16.80
2018-04-17T08:05:43.959Z,17.00
2018-04-17T08:08:12.249Z,17.00
2018-04-17T08:10:41.256Z,17.30
2018-04-17T08:13:10.285Z,17.40
2018-04-17T08:15:38.583Z,17.30
2018-04-17T08:18:08.346Z,17.30
2018-04-17T08:20:36.589Z,17.40
2018-04-17T08:23:04.832Z,17.50
2018-04-17T08:25:33.129Z,17.40
2018-04-17T08:28:02.324Z,17.40
2018-04-17T08:30:30.612Z,17.60
2018-04-17T08:32:58.895Z,17.70
2018-04-17T08:35:29.020Z,17.60
2018-04-17T08:37:57.288Z,18.00
2018-04-17T08:40:26.668Z,18.10
2018-04-17T08:42:54.947Z,18.00
2018-04-17T08:45:23.223Z,18.00
2018-04-17T08:47:52.248Z,18.40
2018-04-17T08:50:20.505Z,18.20
2018-04-17T08:52:49.725Z,18.60
2018-04-17T08:55:19.334Z,18.60
2018-04-17T08:57:47.625Z,18.50
2018-04-17T09:00:15.894Z,18.50
2018-04-17T09:02:44.169Z,18.60
2018-04-17T09:05:12.663Z,18.50
2018-04-17T09:07:40.906Z,18.60
2018-04-17T09:10:09.928Z,18.80
2018-04-17T09:12:38.955Z,18.90
2018-04-17T09:15:07.184Z,18.70
2018-04-17T09:17:36.258Z,18.90
2018-04-17T09:20:04.474Z,19.00
2018-04-17T09:22:33.517Z,18.80
2018-04-17T09:25:01.792Z,18.90
2018-04-17T09:27:31.034Z,19.00
2018-04-17T09:29:59.275Z,18.80
2018-04-17T09:32:27.510Z,19.40
2018-04-17T09:34:56.616Z,19.60
2018-04-17T09:37:25.652Z,19.70
2018-04-17T09:39:53.955Z,19.80
2018-04-17T09:42:22.816Z,19.80
2018-04-17T09:44:51.776Z,19.90
2018-04-17T09:47:20.820Z,19.90
2018-04-17T09:49:49.048Z,19.70
2018-04-17T09:52:17.329Z,20.10
2018-04-17T09:54:46.470Z,19.80
2018-04-17T09:57:14.803Z,20.00
2018-04-17T09:59:43.056Z,19.70
2018-04-17T10:02:11.360Z,20.10
2018-04-17T10:04:39.588Z,20.30
2018-04-17T10:07:07.858Z,20.30
2018-04-17T10:09:36.202Z,20.50
2018-04-17T10:12:04.418Z,20.40
2018-04-17T10:14:35.143Z,20.20
2018-04-17T10:17:03.411Z,20.50
2018-04-17T10:19:31.635Z,20.60
2018-04-17T10:21:59.913Z,20.70
2018-04-17T10:24:28.188Z,20.70
2018-04-17T10:26:57.485Z,20.80
2018-04-17T10:29:25.743Z,20.80
2018-04-17T10:31:54.947Z,20.70
2018-04-17T10:34:23.968Z,20.80
2018-04-17T10:36:52.249Z,20.80
2018-04-17T10:39:20.599Z,20.90
2018-04-17T10:41:56.291Z,20.70
2018-04-17T10:44:24.700Z,20.70
2018-04-17T10:46:52.996Z,20.30
2018-04-17T10:49:21.231Z,21.00
2018-04-17T10:51:49.508Z,20.70
2018-04-17T10:54:17.759Z,20.80
2018-04-17T10:56:46.791Z,21.00
2018-04-17T10:59:15.045Z,21.00
2018-04-17T11:01:44.105Z,21.00
2018-04-17T11:04:12.346Z,21.10
2018-04-17T11:06:40.699Z,21.10
2018-04-17T11:09:10.740Z,21.20
2018-04-17T11:11:39.955Z,21.20
2018-04-17T11:14:09.027Z,21.30
2018-04-17T11:16:38.760Z,21.40
2018-04-17T11:19:07.095Z,21.40
2018-04-17T11:21:35.380Z,21.40
2018-04-17T11:24:03.828Z,21.50
2018-04-17T11:26:32.095Z,21.50
2018-04-17T11:29:00.353Z,21.50
2018-04-17T11:31:28.605Z,21.50
2018-04-17T11:33:56.845Z,21.50
2018-04-17T11:36:25.133Z,21.50
2018-04-17T11:38:53.381Z,21.60
2018-04-17T11:41:21.678Z,21.60
2018-04-17T11:43:49.945Z,21.70
2018-04-17T11:46:18.197Z,21.80
2018-04-17T11:48:47.314Z,21.90
2018-04-17T11:51:15.661Z,21.90
2018-04-17T11:53:43.912Z,21.90
2018-04-17T11:56:12.189Z,21.90
2018-04-17T11:58:40.495Z,22.00
2018-04-17T12:01:08.728Z,22.00
2018-04-17T12:03:37.754Z,22.10
2018-04-17T12:06:05.992Z,22.10
2018-04-17T12:08:35.016Z,22.20
2018-04-17T12:11:05.096Z,22.20
2018-04-17T12:13:33.431Z,22.30
2018-04-17T12:16:01.713Z,22.30
2018-04-17T12:18:29.957Z,22.20
2018-04-17T12:20:58.976Z,22.30
2018-04-17T12:23:27.240Z,22.30
2018-04-17T12:25:55.940Z,22.30
2018-04-17T12:28:24.233Z,22.30
2018-04-17T12:30:52.518Z,22.40
2018-04-17T12:33:20.800Z,22.50
2018-04-17T12:35:49.118Z,22.50
2018-04-17T12:38:17.376Z,22.40
2018-04-17T12:40:45.664Z,22.50
2018-04-17T12:43:13.935Z,22.50
2018-04-17T12:45:42.238Z,22.60
2018-04-17T12:48:10.503Z,22.60
2018-04-17T12:50:38.801Z,22.70
2018-04-17T12:53:07.881Z,22.70
2018-04-17T12:55:36.138Z,22.70
2018-04-17T12:58:04.412Z,22.60
2018-04-17T13:00:32.688Z,22.70
2018-04-17T13:03:01.113Z,22.70
2018-04-17T13:05:29.357Z,22.80
2018-04-17T13:07:57.621Z,22.90
2018-04-17T13:10:25.892Z,22.90
2018-04-17T13:12:55.803Z,23.00
2018-04-17T13:15:24.061Z,22.90
2018-04-17T13:17:52.355Z,23.00
2018-04-17T13:20:20.600Z,23.00
2018-04-17T13:22:48.861Z,23.00
2018-04-17T13:25:17.233Z,23.00
2018-04-17T13:27:45.460Z,23.00
2018-04-17T13:30:13.732Z,23.10
2018-04-17T13:32:41.986Z,23.10
2018-04-17T13:35:10.232Z,23.20
2018-04-17T13:37:39.265Z,23.20
2018-04-17T13:40:07.542Z,23.10
2018-04-17T13:42:35.801Z,23.20
2018-04-17T13:45:04.840Z,23.10
2018-04-17T13:47:34.758Z,23.20
2018-04-17T13:50:03.036Z,23.20
2018-04-17T13:52:31.349Z,23.30
2018-04-17T13:54:59.576Z,23.20
2018-04-17T13:57:27.837Z,23.20
2018-04-17T13:59:56.947Z,23.30
2018-04-17T14:02:25.248Z,23.30
2018-04-17T14:04:54.283Z,23.40
2018-04-17T14:07:26.593Z,23.40
2018-04-17T14:09:55.632Z,23.40
2018-04-17T14:12:24.069Z,23.40
2018-04-17T14:14:52.422Z,23.40
2018-04-17T14:17:20.692Z,23.40
2018-04-17T14:19:48.916Z,23.40
2018-04-17T14:22:18.816Z,23.40
2018-04-17T14:24:52.156Z,23.50
2018-04-17T14:27:20.422Z,23.50
2018-04-17T14:29:49.556Z,23.60
2018-04-17T14:32:17.859Z,23.60
2018-04-17T14:34:46.079Z,23.70
2018-04-17T14:37:14.459Z,23.70
2018-04-17T14:39:44.234Z,23.70
2018-04-17T14:42:12.589Z,23.70
2018-04-17T14:44:40.853Z,23.70
2018-04-17T14:47:09.134Z,23.70
2018-04-17T14:49:37.360Z,23.70
2018-04-17T14:52:05.620Z,23.80
2018-04-17T14:54:33.908Z,23.90
2018-04-17T14:57:02.940Z,24.10
2018-04-17T14:59:31.963Z,24.20
2018-04-17T15:02:00.242Z,24.20
2018-04-17T15:04:28.487Z,24.20
2018-04-17T15:06:56.755Z,24.30
2018-04-17T15:09:25.044Z,24.50
2018-04-17T15:11:53.337Z,24.60
2018-04-17T15:14:21.578Z,24.50
2018-04-17T15:16:49.832Z,24.50
2018-04-17T15:19:18.112Z,24.50
2018-04-17T15:21:48.120Z,24.50
2018-04-17T15:24:16.400Z,24.50
2018-04-17T15:26:44.741Z,24.50
2018-04-17T15:29:12.991Z,24.50
2018-04-17T15:31:41.219Z,24.50
2018-04-17T15:34:10.771Z,24.60
2018-04-17T15:36:39.026Z,24.60
2018-04-17T15:39:07.350Z,24.60
2018-04-17T15:41:35.607Z,24.60
2018-04-17T15:44:04.722Z,24.50
2018-04-17T15:46:33.455Z,24.50
2018-04-17T15:49:01.721Z,24.50
2018-04-17T15:51:30.066Z,24.50
2018-04-17T15:53:58.309Z,24.50
2018-04-17T15:56:27.388Z,24.50
2018-04-17T15:58:56.557Z,24.50
2018-04-17T16:01:24.822Z,24.50
2018-04-17T16:03:53.291Z,24.50
2018-04-17T16:06:22.374Z,24.50
2018-04-17T16:08:51.395Z,24.50
2018-04-17T16:11:22.852Z,24.60
2018-04-17T16:13:51.860Z,24.60
2018-04-17T16:16:20.101Z,24.50
2018-04-17T16:18:49.160Z,24.60
2018-04-17T16:21:17.400Z,24.60
2018-04-17T16:23:45.701Z,24.60
2018-04-17T16:26:13.940Z,24.60
2018-04-17T16:28:42.989Z,24.40
2018-04-17T16:31:11.220Z,24.40
2018-04-17T16:33:39.507Z,24.50
2018-04-17T16:36:08.556Z,24.40
2018-04-17T16:38:36.835Z,24.30
2018-04-17T16:41:05.106Z,24.30
2018-04-17T16:43:33.341Z,24.30
2018-04-17T16:46:02.446Z,24.20
2018-04-17T16:48:31.508Z,24.20
2018-04-17T16:50:59.723Z,24.20
2018-04-17T16:53:28.115Z,24.20
2018-04-17T16:55:56.476Z,24.20
2018-04-17T16:58:24.848Z,24.20
2018-04-17T17:00:53.150Z,24.20
2018-04-17T17:03:21.393Z,24.20
2018-04-17T17:05:49.689Z,24.20
2018-04-17T17:08:18.017Z,24.10
2018-04-17T17:10:46.294Z,24.10
2018-04-17T17:13:15.468Z,24.20
2018-04-17T17:15:43.716Z,24.20
2018-04-17T17:18:11.996Z,24.10
2018-04-17T17:20:40.219Z,24.10
2018-04-17T17:23:09.247Z,24.10
2018-04-17T17:25:37.497Z,24.10
2018-04-17T17:28:06.699Z,24.10
2018-04-17T17:30:35.729Z,24.20
2018-04-17T17:33:03.995Z,24.10
2018-04-17T17:35:33.117Z,24.20
2018-04-17T17:38:01.389Z,24.20
2018-04-17T17:40:29.705Z,24.20
2018-04-17T17:43:01.203Z,24.20
2018-04-17T17:45:29.700Z,24.20
2018-04-17T17:47:57.950Z,24.20
2018-04-17T17:50:29.136Z,24.20
2018-04-17T17:52:57.619Z,24.20
2018-04-17T17:55:25.872Z,24.30
2018-04-17T17:57:54.177Z,24.30
2018-04-17T18:00:22.423Z,24.30
2018-04-17T18:02:50.887Z,24.30
2018-04-17T18:05:19.109Z,24.30
2018-04-17T18:07:48.437Z,24.20
2018-04-17T18:10:16.725Z,24.10
2018-04-17T18:12:45.031Z,24.10
2018-04-17T18:15:13.283Z,24.00
2018-04-17T18:17:42.370Z,24.00
2018-04-17T18:20:10.635Z,23.90
2018-04-17T18:22:38.879Z,23.80
2018-04-17T18:25:07.163Z,23.80
2018-04-17T18:27:36.181Z,23.70
2018-04-17T18:30:05.228Z,23.70
2018-04-17T18:32:33.482Z,23.70
2018-04-17T18:35:01.761Z,23.60
2018-04-17T18:37:30.029Z,23.40
2018-04-17T18:39:58.433Z,23.30
2018-04-17T18:42:26.762Z,23.20
2018-04-17T18:44:55.129Z,23.10
2018-04-17T18:47:24.286Z,23.00
2018-04-17T18:49:52.524Z,23.00
2018-04-17T18:52:20.776Z,22.90
2018-04-17T18:54:49.044Z,22.90
2018-04-17T18:57:17.355Z,22.90
2018-04-17T18:59:45.607Z,22.80
2018-04-17T19:02:13.870Z,22.60
2018-04-17T19:04:42.136Z,22.50
2018-04-17T19:07:10.397Z,22.40
2018-04-17T19:09:39.447Z,22.30
2018-04-17T19:12:07.762Z,22.30
2018-04-17T19:14:36.023Z,22.20
2018-04-17T19:17:04.314Z,22.20
2018-04-17T19:19:32.586Z,22.10
2018-04-17T19:22:00.863Z,22.10
2018-04-17T19:24:29.324Z,22.00
2018-04-17T19:26:57.747Z,22.00
2018-04-17T19:29:26.004Z,22.00
2018-04-17T19:31:54.260Z,21.90
2018-04-17T19:34:22.531Z,21.80
2018-04-17T19:36:50.836Z,21.70
2018-04-17T19:39:19.100Z,21.70
2018-04-17T19:41:47.363Z,21.50
2018-04-17T19:44:16.996Z,21.40
2018-04-17T19:46:46.213Z,21.40
2018-04-17T19:49:14.496Z,21.40
2018-04-17T19:51:42.765Z,21.30
2018-04-17T19:54:11.819Z,21.30
2018-04-17T19:56:42.954Z,21.00
2018-04-17T19:59:11.180Z,21.10
2018-04-17T20:01:39.464Z,21.00
2018-04-17T20:04:07.757Z,20.90
2018-04-17T20:06:36.050Z,20.80
2018-04-17T20:09:06.150Z,20.80
2018-04-17T20:11:34.451Z,20.90
2018-04-17T20:14:02.694Z,20.80
2018-04-17T20:16:31.749Z,20.70
2018-04-17T20:18:59.988Z,20.70
2018-04-17T20:21:28.805Z,20.60
2018-04-17T20:23:57.275Z,20.60
2018-04-17T20:26:25.564Z,20.50
2018-04-17T20:28:53.825Z,20.20
2018-04-17T20:31:22.116Z,20.30
2018-04-17T20:33:50.465Z,20.30
2018-04-17T20:36:19.475Z,20.30
2018-04-17T20:38:48.581Z,20.20
2018-04-17T20:41:18.415Z,20.10
2018-04-17T20:43:46.684Z,20.10
2018-04-17T20:46:16.601Z,20.00
2018-04-17T20:48:44.860Z,20.10
2018-04-17T20:51:13.194Z,19.80
2018-04-17T20:53:42.464Z,19.80
2018-04-17T20:56:12.257Z,19.90
2018-04-17T20:58:41.995Z,19.50
2018-04-17T21:01:10.333Z,19.80
2018-04-17T21:03:38.545Z,20.00
2018-04-17T21:06:07.606Z,19.40
2018-04-17T21:08:35.917Z,19.30
2018-04-17T21:11:04.128Z,19.40
2018-04-17T21:13:32.391Z,19.50
2018-04-17T21:16:00.682Z,19.00
2018-04-17T21:18:28.925Z,19.40
2018-04-17T21:20:58.723Z,19.20
2018-04-17T21:23:27.868Z,19.40
2018-04-17T21:25:56.612Z,19.20
2018-04-17T21:28:25.772Z,19.00
2018-04-17T21:30:54.100Z,19.00
2018-04-17T21:33:24.292Z,19.20
2018-04-17T21:35:52.646Z,19.00
2018-04-17T21:38:22.032Z,19.30
2018-04-17T21:40:50.365Z,19.20
2018-04-17T21:43:18.770Z,19.20
2018-04-17T21:45:47.100Z,18.90
2018-04-17T21:48:15.372Z,18.70
2018-04-17T21:50:43.796Z,18.70
2018-04-17T21:53:12.107Z,18.20
2018-04-17T21:55:40.357Z,18.60
2018-04-17T21:58:08.658Z,18.40
2018-04-17T22:00:36.935Z,18.80
2018-04-17T22:03:07.104Z,18.70
2018-04-17T22:05:35.448Z,18.60
2018-04-17T22:08:05.416Z,18.30
2018-04-17T22:10:33.626Z,18.40
2018-04-17T22:13:02.002Z,18.40
2018-04-17T22:15:30.233Z,18.30
2018-04-17T22:17:59.260Z,18.40
2018-04-17T22:20:27.513Z,18.20
2018-04-17T22:22:55.846Z,18.30
2018-04-17T22:25:25.051Z,18.20
2018-04-17T22:27:53.272Z,18.20
2018-04-17T22:30:22.418Z,18.20
2018-04-17T22:32:50.692Z,18.10
2018-04-17T22:35:18.945Z,18.20
2018-04-17T22:37:47.273Z,18.00
2018-04-17T22:40:15.518Z,18.10
2018-04-17T22:42:43.754Z,17.80
2018-04-17T22:45:12.032Z,17.90
2018-04-17T22:47:40.271Z,17.60
2018-04-17T22:50:08.554Z,17.70
2018-04-17T22:52:36.831Z,17.60
2018-04-17T22:55:05.256Z,17.60
2018-04-17T22:57:33.579Z,17.40
2018-04-17T23:00:01.861Z,17.40
2018-04-17T23:02:29.913Z,17.30
2018-04-17T23:04:58.198Z,17.40
2018-04-17T23:07:27.245Z,17.20
2018-04-17T23:09:55.521Z,17.20
2018-04-17T23:12:23.802Z,17.50
2018-04-17T23:14:52.063Z,17.20
2018-04-17T23:17:20.352Z,17.30
2018-04-17T23:19:48.595Z,17.30
2018-04-17T23:22:17.694Z,17.10
2018-04-17T23:24:46.803Z,17.10
2018-04-17T23:27:15.871Z,17.10
2018-04-17T23:29:44.120Z,17.00
2018-04-17T23:32:12.451Z,16.90
2018-04-17T23:34:40.684Z,16.80
2018-04-17T23:37:09.410Z,16.70
2018-04-17T23:39:37.660Z,16.80
2018-04-17T23:42:06.021Z,16.60
2018-04-17T23:44:34.400Z,16.90
2018-04-17T23:47:02.731Z,16.70
2018-04-17T23:49:31.040Z,16.70
2018-04-17T23:52:00.076Z,16.70
2018-04-17T23:54:28.340Z,16.70
2018-04-17T23:56:57.672Z,16.70
2018-04-17T23:59:26.739Z,16.60
